createdAt,value
2022-08-16T00:01:51.853Z,98111.20
2022-08-16T00:04:27.932Z,98113.40
2022-08-16T00:07:05.321Z,98115.80
2022-08-16T00:09:41.798Z,98114.60
2022-08-16T00:12:18.413Z,98106.80
2022-08-16T00:14:56.575Z,98109.80
2022-08-16T00:17:56.194Z,98110.80
2022-08-16T00:20:30.032Z,98107.20
2022-08-16T00:23:06.655Z,98103.80
2022-08-16T00:26:33.168Z,98098.60
2022-08-16T00:28:46.084Z,98098.40
2022-08-16T00:31:23.933Z,98100.40
2022-08-16T00:34:00.849Z,98096.80
2022-08-16T00:36:40.533Z,98100.40
2022-08-16T00:39:23.753Z,98106.40
2022-08-16T00:42:01.062Z,98105.40
2022-08-16T00:44:38.710Z,98105.20
2022-08-16T00:47:20.358Z,98104.60
2022-08-16T00:49:58.310Z,98109.00
2022-08-16T00:52:34.340Z,98108.80
2022-08-16T00:55:13.644Z,98113.20
2022-08-16T00:57:59.584Z,98114.20
2022-08-16T01:00:39.582Z,98115.60
2022-08-16T01:03:20.193Z,98111.40
2022-08-16T01:06:32.726Z,98112.00
2022-08-16T01:09:08.537Z,98113.20
2022-08-16T01:11:54.190Z,98114.40
2022-08-16T01:14:38.903Z,98111.40
2022-08-16T01:17:19.979Z,98102.60
2022-08-16T01:20:24.010Z,98106.20
2022-08-16T01:23:12.784Z,98109.80
2022-08-16T01:26:00.237Z,98110.80
2022-08-16T01:28:55.349Z,98109.00
2022-08-16T01:31:32.104Z,98107.60
2022-08-16T01:34:23.425Z,98109.80
2022-08-16T01:37:12.384Z,98113.00
2022-08-16T01:39:53.065Z,98120.20
2022-08-16T01:42:29.790Z,98118.20
2022-08-16T01:45:08.813Z,98116.80
2022-08-16T01:47:49.214Z,98111.20
2022-08-16T01:50:42.768Z,98108.20
2022-08-16T01:53:23.490Z,98107.60
2022-08-16T01:56:26.894Z,98107.60
2022-08-16T01:59:16.071Z,98105.60
2022-08-16T02:01:59.533Z,98105.20
2022-08-16T02:04:48.835Z,98105.80
2022-08-16T02:07:30.699Z,98101.60
2022-08-16T02:10:10.254Z,98102.40
2022-08-16T02:12:56.165Z,98103.40
2022-08-16T02:15:43.797Z,98101.80
2022-08-16T02:18:21.387Z,98101.00
2022-08-16T02:20:58.180Z,98098.00
2022-08-16T02:23:38.620Z,98097.20
2022-08-16T02:26:19.037Z,98100.80
2022-08-16T02:28:55.792Z,98105.80
2022-08-16T02:32:03.055Z,98102.00
2022-08-16T02:34:32.990Z,98098.00
2022-08-16T02:37:11.844Z,98093.80
2022-08-16T02:39:54.035Z,98096.20
2022-08-16T02:42:30.763Z,98098.40
2022-08-16T02:45:07.934Z,98101.40
2022-08-16T02:48:01.856Z,98103.60
2022-08-16T02:50:53.945Z,98101.60
2022-08-16T02:53:43.393Z,98102.40
2022-08-16T02:56:22.571Z,98099.40
2022-08-16T02:58:59.891Z,98099.20
2022-08-16T03:01:39.195Z,98096.00
2022-08-16T03:04:28.717Z,98097.40
2022-08-16T03:07:17.169Z,98097.40
2022-08-16T03:10:05.341Z,98103.00
2022-08-16T03:12:55.645Z,98100.80
2022-08-16T03:15:35.506Z,98103.20
2022-08-16T03:18:12.513Z,98107.60
2022-08-16T03:20:56.615Z,98111.00
2022-08-16T03:23:35.745Z,98107.40
2022-08-16T03:26:13.647Z,98104.00
2022-08-16T03:28:49.940Z,98109.00
2022-08-16T03:31:26.514Z,98106.00
2022-08-16T03:34:11.282Z,98108.40
2022-08-16T03:36:49.859Z,98103.80
2022-08-16T03:39:27.629Z,98097.20
2022-08-16T03:42:04.423Z,98102.60
2022-08-16T03:44:47.582Z,98108.60
2022-08-16T03:47:27.782Z,98116.20
2022-08-16T03:50:26.117Z,98117.80
2022-08-16T03:53:05.920Z,98118.20
2022-08-16T03:55:45.482Z,98122.00
2022-08-16T03:58:22.710Z,98118.20
2022-08-16T04:00:59.675Z,98122.80
2022-08-16T04:03:36.692Z,98125.80
2022-08-16T04:06:13.144Z,98129.60
2022-08-16T04:08:52.195Z,98133.60
2022-08-16T04:11:36.768Z,98135.60
2022-08-16T04:14:32.382Z,98134.60
2022-08-16T04:17:11.407Z,98126.80
2022-08-16T04:19:47.819Z,98126.00
2022-08-16T04:22:28.284Z,98128.80
2022-08-16T04:25:11.893Z,98136.80
2022-08-16T04:27:54.173Z,98137.60
2022-08-16T04:30:35.114Z,98139.80
2022-08-16T04:33:12.720Z,98141.60
2022-08-16T04:35:49.814Z,98139.60
2022-08-16T04:38:26.542Z,98137.40
2022-08-16T04:41:03.902Z,98148.40
2022-08-16T04:43:43.644Z,98143.00
2022-08-16T04:47:00.660Z,98150.60
2022-08-16T04:49:17.948Z,98151.80
2022-08-16T04:51:55.814Z,98148.00
2022-08-16T04:54:32.144Z,98147.40
2022-08-16T04:57:09.187Z,98145.40
2022-08-16T04:59:45.412Z,98148.20
2022-08-16T05:02:41.649Z,98142.80
2022-08-16T05:05:19.356Z,98147.40
2022-08-16T05:07:58.579Z,98148.20
2022-08-16T05:10:37.237Z,98146.40
2022-08-16T05:13:17.676Z,98147.00
2022-08-16T05:15:53.995Z,98153.60
2022-08-16T05:18:33.854Z,98151.60
2022-08-16T05:21:12.493Z,98157.40
2022-08-16T05:23:51.648Z,98154.80
2022-08-16T05:26:37.582Z,98150.40
2022-08-16T05:29:20.774Z,98150.60
2022-08-16T05:32:32.861Z,98144.80
2022-08-16T05:35:11.507Z,98144.00
2022-08-16T05:37:52.169Z,98142.20
2022-08-16T05:40:29.400Z,98147.20
2022-08-16T05:43:06.291Z,98150.60
2022-08-16T05:45:50.883Z,98150.80
2022-08-16T05:48:27.721Z,98155.80
2022-08-16T05:51:11.049Z,98153.00
2022-08-16T05:54:07.798Z,98161.40
2022-08-16T05:56:50.141Z,98167.20
2022-08-16T05:59:27.829Z,98177.40
2022-08-16T06:02:06.115Z,98174.20
2022-08-16T06:04:45.133Z,98178.80
2022-08-16T06:07:26.612Z,98177.00
2022-08-16T06:11:02.511Z,98179.20
2022-08-16T06:13:43.436Z,98175.60
2022-08-16T06:16:22.406Z,98180.40
2022-08-16T06:19:05.128Z,98178.80
2022-08-16T06:21:42.953Z,98182.60
2022-08-16T06:24:52.657Z,98191.20
2022-08-16T06:27:16.487Z,98200.80
2022-08-16T06:29:53.906Z,98203.20
2022-08-16T06:32:33.409Z,98208.60
2022-08-16T06:35:15.819Z,98213.20
2022-08-16T06:37:52.737Z,98214.60
2022-08-16T06:40:33.714Z,98217.80
2022-08-16T06:43:09.800Z,98219.40
2022-08-16T06:45:50.065Z,98217.00
2022-08-16T06:48:33.093Z,98223.20
2022-08-16T06:51:11.792Z,98227.40
2022-08-16T06:53:52.838Z,98231.60
2022-08-16T06:56:29.107Z,98237.20
2022-08-16T06:59:19.977Z,98240.80
2022-08-16T07:02:02.780Z,98235.00
2022-08-16T07:04:40.580Z,98231.80
2022-08-16T07:07:22.847Z,98231.80
2022-08-16T07:09:59.180Z,98231.00
2022-08-16T07:12:36.558Z,98233.00
2022-08-16T07:15:25.259Z,98237.60
2022-08-16T07:18:02.206Z,98243.40
2022-08-16T07:20:47.746Z,98244.60
2022-08-16T07:23:37.413Z,98245.00
2022-08-16T07:26:25.318Z,98245.00
2022-08-16T07:29:06.120Z,98239.20
2022-08-16T07:31:43.751Z,98242.20
2022-08-16T07:34:20.101Z,98244.40
2022-08-16T07:37:14.222Z,98242.60
2022-08-16T07:40:11.067Z,98243.80
2022-08-16T07:42:49.827Z,98245.40
2022-08-16T07:45:26.879Z,98242.40
2022-08-16T07:48:11.428Z,98243.60
2022-08-16T07:50:55.809Z,98244.00
2022-08-16T07:53:43.733Z,98244.40
2022-08-16T07:56:21.233Z,98238.80
2022-08-16T07:59:10.853Z,98239.40
2022-08-16T08:01:47.707Z,98243.80
2022-08-16T08:04:33.701Z,98246.40
2022-08-16T08:07:10.124Z,98251.80
2022-08-16T08:09:46.919Z,98259.60
2022-08-16T08:12:32.027Z,98260.80
2022-08-16T08:15:15.680Z,98253.40
2022-08-16T08:18:30.328Z,98258.40
2022-08-16T08:20:59.881Z,98262.40
2022-08-16T08:23:42.436Z,98263.20
2022-08-16T08:26:20.695Z,98265.00
2022-08-16T08:29:01.123Z,98266.20
2022-08-16T08:31:39.449Z,98266.20
2022-08-16T08:34:17.506Z,98266.00
2022-08-16T08:36:56.185Z,98261.00
2022-08-16T08:39:53.374Z,98262.20
2022-08-16T08:42:31.985Z,98260.80
2022-08-16T08:45:24.314Z,98257.80
2022-08-16T08:48:07.406Z,98257.80
2022-08-16T08:50:44.096Z,98258.80
2022-08-16T08:53:30.581Z,98252.60
2022-08-16T08:56:22.984Z,98258.20
2022-08-16T08:59:12.783Z,98262.80
2022-08-16T09:01:57.190Z,98269.20
2022-08-16T09:04:37.522Z,98273.00
2022-08-16T09:07:15.689Z,98271.20
2022-08-16T09:10:00.913Z,98274.20
2022-08-16T09:12:46.646Z,98274.80
2022-08-16T09:15:33.067Z,98277.80
2022-08-16T09:18:24.800Z,98281.00
2022-08-16T09:21:02.005Z,98282.40
2022-08-16T09:23:40.423Z,98273.80
2022-08-16T09:26:46.328Z,98269.80
2022-08-16T09:29:23.773Z,98271.20
2022-08-16T09:32:13.027Z,98268.80
2022-08-16T09:35:07.938Z,98268.20
2022-08-16T09:37:43.867Z,98268.40
2022-08-16T09:40:42.887Z,98270.20
2022-08-16T09:43:58.446Z,98270.40
2022-08-16T09:46:44.820Z,98269.00
2022-08-16T09:49:19.659Z,98265.60
2022-08-16T09:51:57.168Z,98266.60
2022-08-16T09:54:33.469Z,98266.80
2022-08-16T09:57:12.309Z,98269.60
2022-08-16T09:59:48.403Z,98266.80
2022-08-16T10:02:33.435Z,98263.00
2022-08-16T10:05:21.436Z,98264.80
2022-08-16T10:07:57.430Z,98264.60
2022-08-16T10:10:34.302Z,98265.40
2022-08-16T10:13:16.645Z,98267.60
2022-08-16T10:16:00.264Z,98273.00
2022-08-16T10:19:00.921Z,98276.20
2022-08-16T10:21:35.609Z,98274.00
2022-08-16T10:24:13.334Z,98274.40
2022-08-16T10:27:25.420Z,98275.80
2022-08-16T10:30:07.159Z,98276.60
2022-08-16T10:32:57.154Z,98280.00
2022-08-16T10:35:34.052Z,98281.60
2022-08-16T10:38:27.110Z,98286.60
2022-08-16T10:41:04.448Z,98293.60
2022-08-16T10:43:42.963Z,98293.40
2022-08-16T10:46:33.675Z,98291.60
2022-08-16T10:49:11.109Z,98287.20
2022-08-16T10:52:01.332Z,98282.00
2022-08-16T10:54:58.443Z,98272.20
2022-08-16T10:57:35.367Z,98266.60
2022-08-16T11:00:20.851Z,98265.40
2022-08-16T11:03:01.288Z,98263.80
2022-08-16T11:08:40.773Z,98261.60
2022-08-16T11:11:22.658Z,98259.00
2022-08-16T11:13:59.725Z,98251.20
2022-08-16T11:19:33.027Z,98245.20
2022-08-16T11:22:42.002Z,98242.00
2022-08-16T11:31:22.368Z,98249.80
2022-08-16T11:33:58.319Z,98244.00
2022-08-16T11:36:34.335Z,98244.20
2022-08-16T11:39:11.686Z,98243.00
2022-08-16T11:41:49.320Z,98245.00
2022-08-16T11:44:52.050Z,98238.20
2022-08-16T11:47:26.007Z,98237.20
2022-08-16T11:50:02.140Z,98234.80
2022-08-16T11:52:39.393Z,98236.20
2022-08-16T11:55:23.783Z,98237.20
2022-08-16T11:58:00.410Z,98235.40
2022-08-16T12:00:51.353Z,98226.00
2022-08-16T12:03:35.123Z,98223.00
2022-08-16T12:06:25.007Z,98213.20
2022-08-16T12:09:02.370Z,98213.80
2022-08-16T12:11:40.473Z,98207.00
2022-08-16T12:14:20.140Z,98202.20
2022-08-16T12:17:02.226Z,98195.40
2022-08-16T12:19:38.765Z,98186.00
2022-08-16T12:22:19.222Z,98186.00
2022-08-16T12:24:56.519Z,98187.00
2022-08-16T12:27:33.239Z,98194.00
2022-08-16T12:30:21.754Z,98194.80
2022-08-16T12:33:05.317Z,98196.00
2022-08-16T12:35:44.664Z,98201.40
2022-08-16T12:38:41.252Z,98204.40
2022-08-16T12:41:24.606Z,98212.20
2022-08-16T12:44:04.434Z,98215.80
2022-08-16T12:46:41.615Z,98222.20
2022-08-16T12:49:18.731Z,98225.80
2022-08-16T12:52:01.210Z,98219.60
2022-08-16T12:54:39.923Z,98218.60
2022-08-16T12:57:15.907Z,98211.00
2022-08-16T12:59:53.861Z,98203.60
2022-08-16T13:02:33.472Z,98197.20
2022-08-16T13:05:14.622Z,98190.60
2022-08-16T13:07:53.248Z,98195.00
2022-08-16T13:10:37.694Z,98201.00
2022-08-16T13:13:24.429Z,98207.40
2022-08-16T13:16:15.318Z,98210.00
2022-08-16T13:18:56.165Z,98209.60
2022-08-16T13:21:32.547Z,98207.60
2022-08-16T13:24:10.240Z,98205.40
2022-08-16T13:26:46.582Z,98213.00
2022-08-16T13:29:40.033Z,98217.60
2022-08-16T13:32:40.095Z,98216.40
2022-08-16T13:35:16.534Z,98217.00
2022-08-16T13:37:53.030Z,98215.20
2022-08-16T13:40:30.907Z,98220.00
2022-08-16T13:43:07.262Z,98221.00
2022-08-16T13:45:50.391Z,98228.00
2022-08-16T13:48:42.699Z,98221.80
2022-08-16T13:51:24.051Z,98226.00
2022-08-16T13:54:04.491Z,98225.60
2022-08-16T13:56:42.544Z,98226.60
2022-08-16T13:59:21.142Z,98225.80
2022-08-16T14:02:02.683Z,98219.40
2022-08-16T14:04:42.613Z,98211.60
2022-08-16T14:07:24.500Z,98210.80
2022-08-16T14:10:00.892Z,98217.20
2022-08-16T14:12:39.213Z,98217.00
2022-08-16T14:15:21.116Z,98213.40
2022-08-16T14:18:15.711Z,98212.60
2022-08-16T14:20:53.366Z,98229.60
2022-08-16T14:23:29.872Z,98241.40
2022-08-16T14:26:06.221Z,98248.00
2022-08-16T14:28:44.256Z,98244.80
2022-08-16T14:31:21.604Z,98240.40
2022-08-16T14:33:59.804Z,98236.00
2022-08-16T14:36:37.784Z,98236.60
2022-08-16T14:39:16.917Z,98240.40
2022-08-16T14:41:53.411Z,98248.40
2022-08-16T14:44:29.867Z,98248.40
2022-08-16T14:47:07.687Z,98251.00
2022-08-16T14:49:43.582Z,98252.00
2022-08-16T14:52:51.961Z,98250.20
2022-08-16T14:55:22.044Z,98258.20
2022-08-16T14:57:58.977Z,98254.60
2022-08-16T15:00:36.634Z,98250.00
2022-08-16T15:03:13.993Z,98245.60
2022-08-16T15:05:53.915Z,98248.20
2022-08-16T15:08:37.198Z,98250.40
2022-08-16T15:11:16.635Z,98255.80
2022-08-16T15:13:55.279Z,98258.80
2022-08-16T15:16:31.150Z,98262.40
2022-08-16T15:19:10.213Z,98270.00
2022-08-16T15:21:49.290Z,98273.20
2022-08-16T15:24:31.095Z,98275.20
2022-08-16T15:27:14.196Z,98274.40
2022-08-16T15:29:52.294Z,98280.20
2022-08-16T15:32:28.932Z,98279.80
2022-08-16T15:35:05.645Z,98274.40
2022-08-16T15:37:54.740Z,98276.00
2022-08-16T15:40:35.378Z,98274.40
2022-08-16T15:43:13.769Z,98271.80
2022-08-16T15:46:35.364Z,98269.00
2022-08-16T15:49:17.095Z,98263.20
2022-08-16T15:51:54.156Z,98263.60
2022-08-16T15:54:33.474Z,98268.00
2022-08-16T15:57:11.828Z,98271.40
2022-08-16T15:59:56.188Z,98269.20
2022-08-16T16:02:49.627Z,98274.00
2022-08-16T16:05:26.569Z,98271.60
2022-08-16T16:08:12.274Z,98267.00
2022-08-16T16:10:54.772Z,98263.80
2022-08-16T16:13:31.747Z,98267.40
2022-08-16T16:16:16.615Z,98270.80
2022-08-16T16:18:55.782Z,98280.20
2022-08-16T16:21:32.370Z,98284.80
2022-08-16T16:24:21.275Z,98281.80
2022-08-16T16:26:58.461Z,98279.20
2022-08-16T16:29:37.127Z,98281.60
2022-08-16T16:32:16.604Z,98281.80
2022-08-16T16:34:53.269Z,98280.80
2022-08-16T16:37:32.079Z,98283.80
2022-08-16T16:40:11.206Z,98280.00
2022-08-16T16:42:50.408Z,98276.40
2022-08-16T16:45:27.005Z,98273.40
2022-08-16T16:48:13.057Z,98277.20
2022-08-16T16:50:50.889Z,98273.80
2022-08-16T16:53:31.602Z,98273.20
2022-08-16T16:56:19.686Z,98280.20
2022-08-16T16:59:00.963Z,98283.00
2022-08-16T17:01:59.448Z,98279.00
2022-08-16T17:04:45.591Z,98284.20
2022-08-16T17:07:24.214Z,98284.60
2022-08-16T17:10:00.715Z,98281.00
2022-08-16T17:12:46.859Z,98283.00
2022-08-16T17:15:26.213Z,98288.40
2022-08-16T17:19:02.004Z,98297.40
2022-08-16T17:21:10.481Z,98298.60
2022-08-16T17:23:59.551Z,98297.60
2022-08-16T17:26:49.066Z,98298.40
2022-08-16T17:29:31.077Z,98297.00
2022-08-16T17:32:34.104Z,98300.40
2022-08-16T17:35:17.848Z,98305.60
2022-08-16T17:37:55.742Z,98304.80
2022-08-16T17:40:46.751Z,98307.40
2022-08-16T17:43:30.178Z,98310.20
2022-08-16T17:46:51.478Z,98309.00
2022-08-16T17:49:03.907Z,98309.00
2022-08-16T17:51:39.766Z,98310.20
2022-08-16T17:54:18.393Z,98315.80
2022-08-16T17:57:06.765Z,98316.00
2022-08-16T17:59:42.736Z,98318.60
2022-08-16T18:02:43.382Z,98319.80
2022-08-16T18:05:20.374Z,98322.20
2022-08-16T18:07:56.960Z,98317.80
2022-08-16T18:10:36.306Z,98319.40
2022-08-16T18:13:13.805Z,98322.00
2022-08-16T18:15:51.596Z,98318.20
2022-08-16T18:18:28.209Z,98316.60
2022-08-16T18:21:21.671Z,98313.40
2022-08-16T18:23:57.923Z,98317.20
2022-08-16T18:26:34.163Z,98318.40
2022-08-16T18:29:10.749Z,98321.40
2022-08-16T18:31:50.776Z,98320.20
2022-08-16T18:34:26.914Z,98324.00
2022-08-16T18:37:02.969Z,98326.20
2022-08-16T18:39:40.248Z,98324.00
2022-08-16T18:42:18.985Z,98324.60
2022-08-16T18:44:55.316Z,98324.60
2022-08-16T18:47:31.518Z,98327.20
2022-08-16T18:50:09.785Z,98329.80
2022-08-16T18:52:56.089Z,98328.40
2022-08-16T18:55:34.840Z,98330.40
2022-08-16T18:58:12.784Z,98328.20
2022-08-16T19:00:55.990Z,98327.20
2022-08-16T19:03:35.321Z,98325.40
2022-08-16T19:06:16.320Z,98327.40
2022-08-16T19:08:52.273Z,98332.20
2022-08-16T19:11:30.168Z,98339.40
2022-08-16T19:14:06.216Z,98340.80
2022-08-16T19:16:42.155Z,98341.60
2022-08-16T19:19:18.215Z,98344.80
2022-08-16T19:21:54.110Z,98344.80
2022-08-16T19:24:30.497Z,98345.00
2022-08-16T19:27:10.248Z,98337.20
2022-08-16T19:29:46.480Z,98337.40
2022-08-16T19:32:28.148Z,98343.20
2022-08-16T19:35:05.743Z,98344.40
2022-08-16T19:37:46.742Z,98346.80
2022-08-16T19:40:37.845Z,98342.00
2022-08-16T19:43:15.429Z,98343.20
2022-08-16T19:45:52.953Z,98343.60
2022-08-16T19:48:29.195Z,98350.60
2022-08-16T19:51:07.678Z,98356.60
2022-08-16T19:53:43.733Z,98358.80
2022-08-16T19:56:21.735Z,98362.40
2022-08-16T20:01:54.237Z,98368.40
2022-08-16T20:04:31.929Z,98372.20
2022-08-16T20:07:09.406Z,98382.00
2022-08-16T20:09:45.912Z,98385.60
2022-08-16T20:12:25.281Z,98386.20
2022-08-16T20:15:01.634Z,98386.80
2022-08-16T20:17:38.043Z,98392.00
2022-08-16T20:20:18.294Z,98392.00
2022-08-16T20:22:55.311Z,98391.60
2022-08-16T20:25:41.294Z,98390.20
2022-08-16T20:28:40.096Z,98392.00
2022-08-16T20:31:16.445Z,98396.00
2022-08-16T20:33:53.661Z,98395.20
2022-08-16T20:36:30.019Z,98398.00
2022-08-16T20:39:08.024Z,98397.20
2022-08-16T20:41:44.595Z,98397.40
2022-08-16T20:44:22.826Z,98396.40
2022-08-16T20:47:01.271Z,98398.60
2022-08-16T20:49:38.752Z,98405.00
2022-08-16T20:52:19.485Z,98411.00
2022-08-16T20:54:58.315Z,98412.40
2022-08-16T20:57:34.726Z,98412.40
2022-08-16T21:00:15.784Z,98417.60
2022-08-16T21:02:52.513Z,98420.40
2022-08-16T21:05:32.061Z,98420.60
2022-08-16T21:08:27.991Z,98423.80
2022-08-16T21:11:07.826Z,98426.60
2022-08-16T21:13:43.883Z,98428.00
2022-08-16T21:16:20.550Z,98429.60
2022-08-16T21:18:56.618Z,98430.60
2022-08-16T21:21:33.748Z,98429.40
2022-08-16T21:24:11.178Z,98424.80
2022-08-16T21:26:55.018Z,98422.00
2022-08-16T21:29:39.779Z,98422.00
2022-08-16T21:32:35.315Z,98421.80
2022-08-16T21:35:18.319Z,98418.60
2022-08-16T21:38:03.112Z,98416.40
2022-08-16T21:40:54.064Z,98416.80
2022-08-16T21:43:32.854Z,98416.80
2022-08-16T21:46:11.587Z,98413.60
2022-08-16T21:48:47.712Z,98408.80
2022-08-16T21:51:25.552Z,98410.00
2022-08-16T21:54:01.992Z,98405.60
2022-08-16T21:56:38.369Z,98403.80
2022-08-16T21:59:14.376Z,98404.60
2022-08-16T22:01:50.547Z,98404.60
2022-08-16T22:04:37.730Z,98399.60
2022-08-16T22:07:16.966Z,98402.00
2022-08-16T22:09:52.991Z,98399.00
2022-08-16T22:12:33.644Z,98396.80
2022-08-16T22:15:12.366Z,98391.80
2022-08-16T22:17:48.533Z,98390.20
2022-08-16T22:20:29.139Z,98384.20
2022-08-16T22:23:16.264Z,98383.00
2022-08-16T22:25:55.142Z,98383.00
2022-08-16T22:28:31.390Z,98388.60
2022-08-16T22:31:07.619Z,98391.40
2022-08-16T22:33:43.864Z,98388.60
2022-08-16T22:36:20.120Z,98388.20
2022-08-16T22:38:57.954Z,98393.60
2022-08-16T22:41:37.657Z,98399.20
2022-08-16T22:44:14.569Z,98396.60
2022-08-16T22:46:51.068Z,98395.00
2022-08-16T22:49:27.244Z,98395.20
2022-08-16T22:52:10.663Z,98388.00
2022-08-16T22:54:48.726Z,98385.60
2022-08-16T22:57:25.151Z,98387.20
2022-08-16T23:00:01.102Z,98384.00
2022-08-16T23:02:54.462Z,98382.20
2022-08-16T23:05:36.084Z,98379.60
2022-08-16T23:08:15.002Z,98382.20
2022-08-16T23:11:10.608Z,98381.60
2022-08-16T23:13:52.595Z,98381.40
2022-08-16T23:16:35.078Z,98381.00
2022-08-16T23:19:15.353Z,98383.40
2022-08-16T23:21:52.945Z,98377.00
2022-08-16T23:24:29.120Z,98373.60
2022-08-16T23:27:13.606Z,98369.60
2022-08-16T23:29:49.462Z,98369.00
2022-08-16T23:32:25.722Z,98370.20
2022-08-16T23:35:04.914Z,98366.80
2022-08-16T23:37:41.256Z,98357.20
2022-08-16T23:40:18.307Z,98356.20
2022-08-16T23:43:07.352Z,98356.20
2022-08-16T23:45:47.226Z,98360.40
2022-08-16T23:48:31.870Z,98359.60
2022-08-16T23:51:29.121Z,98358.20
2022-08-16T23:54:08.510Z,98362.40
2022-08-16T23:56:44.762Z,98364.60
2022-08-16T23:59:21.048Z,98367.60
